createdAt,value
2019-02-07T00:00:26.605Z,-2.20
2019-02-07T00:02:55.024Z,-2.20
2019-02-07T00:05:23.461Z,-2.30
2019-02-07T00:07:51.877Z,-2.30
2019-02-07T00:10:21.625Z,-2.30
2019-02-07T00:12:50.117Z,-2.40
2019-02-07T00:15:18.625Z,-2.40
2019-02-07T00:17:47.045Z,-2.40
2019-02-07T00:20:17.788Z,-2.40
2019-02-07T00:22:46.274Z,-2.40
2019-02-07T00:25:14.780Z,-2.40
2019-02-07T00:27:43.198Z,-2.40
2019-02-07T00:30:15.084Z,-2.40
2019-02-07T00:32:43.509Z,-2.50
2019-02-07T00:35:12.080Z,-2.50
2019-02-07T00:37:40.502Z,-2.50
2019-02-07T00:40:14.472Z,-2.40
2019-02-07T00:42:43.613Z,-2.40
2019-02-07T00:45:14.375Z,-2.40
2019-02-07T00:47:42.795Z,-2.30
2019-02-07T00:50:15.878Z,-2.30
2019-02-07T00:52:44.571Z,-2.20
2019-02-07T00:55:15.234Z,-2.10
2019-02-07T00:57:44.386Z,-2.00
2019-02-07T01:00:21.396Z,-1.90
2019-02-07T01:02:50.156Z,-1.80
2019-02-07T01:05:19.328Z,-1.70
2019-02-07T01:07:48.025Z,-1.60
2019-02-07T01:10:37.704Z,-1.50
2019-02-07T01:13:06.494Z,-1.50
2019-02-07T01:15:35.281Z,-1.40
2019-02-07T01:18:03.686Z,-1.30
2019-02-07T01:20:32.245Z,-1.30
2019-02-07T01:23:00.745Z,-1.30
2019-02-07T01:25:29.188Z,-1.30
2019-02-07T01:27:58.102Z,-1.30
2019-02-07T01:30:28.182Z,-1.40
2019-02-07T01:32:56.609Z,-1.40
2019-02-07T01:35:25.049Z,-1.40
2019-02-07T01:37:53.748Z,-1.60
2019-02-07T01:40:22.869Z,-1.60
2019-02-07T01:42:51.366Z,-1.60
2019-02-07T01:45:24.006Z,-1.70
2019-02-07T01:47:52.510Z,-1.70
2019-02-07T01:50:24.978Z,-1.70
2019-02-07T01:52:54.243Z,-1.70
2019-02-07T01:55:23.056Z,-1.70
2019-02-07T01:57:51.865Z,-1.60
2019-02-07T02:00:20.960Z,-1.60
2019-02-07T02:02:49.541Z,-1.50
2019-02-07T02:05:19.513Z,-1.50
2019-02-07T02:07:48.756Z,-1.50
2019-02-07T02:10:25.728Z,-1.50
2019-02-07T02:12:54.162Z,-1.50
2019-02-07T02:15:24.867Z,-1.50
2019-02-07T02:17:53.950Z,-1.50
2019-02-07T02:20:24.386Z,-1.50
2019-02-07T02:22:55.101Z,-1.50
2019-02-07T02:25:23.757Z,-1.50
2019-02-07T02:27:52.587Z,-1.50
2019-02-07T02:30:26.888Z,-1.50
2019-02-07T02:32:55.324Z,-1.50
2019-02-07T02:35:24.121Z,-1.60
2019-02-07T02:37:52.662Z,-1.50
2019-02-07T02:40:21.352Z,-1.50
2019-02-07T02:42:49.855Z,-1.50
2019-02-07T02:45:20.312Z,-1.60
2019-02-07T02:47:48.925Z,-1.60
2019-02-07T02:50:19.375Z,-1.60
2019-02-07T02:52:48.065Z,-1.60
2019-02-07T02:55:21.359Z,-1.60
2019-02-07T02:57:49.805Z,-1.70
2019-02-07T03:00:20.094Z,-1.70
2019-02-07T03:02:50.173Z,-1.70
2019-02-07T03:05:37.944Z,-1.70
2019-02-07T03:08:08.417Z,-1.80
2019-02-07T03:10:54.867Z,-1.80
2019-02-07T03:13:42.940Z,-1.80
2019-02-07T03:16:24.916Z,-1.90
2019-02-07T03:19:11.566Z,-1.90
2019-02-07T03:21:41.715Z,-1.90
2019-02-07T03:24:26.950Z,-1.90
2019-02-07T03:27:08.980Z,-1.90
2019-02-07T03:29:48.058Z,-1.90
2019-02-07T03:32:18.130Z,-1.90
2019-02-07T03:34:48.203Z,-1.90
2019-02-07T03:37:26.891Z,-2.00
2019-02-07T03:40:12.521Z,-2.10
2019-02-07T03:42:42.585Z,-2.10
2019-02-07T03:45:15.481Z,-2.10
2019-02-07T03:48:02.052Z,-2.20
2019-02-07T03:50:44.008Z,-2.10
2019-02-07T03:53:19.754Z,-2.20
2019-02-07T03:56:10.395Z,-2.10
2019-02-07T03:58:45.665Z,-2.20
2019-02-07T04:01:21.586Z,-2.10
2019-02-07T04:03:52.005Z,-2.10
2019-02-07T04:06:28.316Z,-2.10
2019-02-07T04:08:58.392Z,-2.10
2019-02-07T04:11:28.452Z,-2.00
2019-02-07T04:13:58.825Z,-2.00
2019-02-07T04:16:32.309Z,-2.00
2019-02-07T04:19:02.618Z,-2.00
2019-02-07T04:21:32.677Z,-2.00
2019-02-07T04:24:05.174Z,-2.00
2019-02-07T04:26:38.182Z,-1.90
2019-02-07T04:29:14.230Z,-1.90
2019-02-07T04:31:44.288Z,-2.00
2019-02-07T04:34:17.172Z,-2.00
2019-02-07T04:36:47.236Z,-2.00
2019-02-07T04:39:17.870Z,-1.90
2019-02-07T04:41:47.988Z,-1.90
2019-02-07T04:44:21.153Z,-1.90
2019-02-07T04:47:09.408Z,-1.90
2019-02-07T04:49:42.696Z,-1.90
2019-02-07T04:52:12.840Z,-1.90
2019-02-07T04:54:45.846Z,-1.90
2019-02-07T04:57:32.401Z,-1.80
2019-02-07T05:00:06.210Z,-1.80
2019-02-07T05:02:52.833Z,-1.90
2019-02-07T05:05:22.900Z,-1.90
2019-02-07T05:07:55.988Z,-1.90
2019-02-07T05:10:26.053Z,-1.90
2019-02-07T05:13:12.569Z,-1.90
2019-02-07T05:15:45.377Z,-1.90
2019-02-07T05:18:24.650Z,-1.90
2019-02-07T05:20:54.707Z,-1.90
2019-02-07T05:23:24.782Z,-1.90
2019-02-07T05:25:54.840Z,-1.90
2019-02-07T05:28:24.917Z,-1.90
2019-02-07T05:30:54.976Z,-1.90
2019-02-07T05:33:31.070Z,-1.90
2019-02-07T05:36:07.202Z,-1.90
2019-02-07T05:38:49.357Z,-1.90
2019-02-07T05:41:25.482Z,-1.90
2019-02-07T05:44:01.601Z,-1.80
2019-02-07T05:46:50.635Z,-1.80
2019-02-07T05:49:15.769Z,-1.80
2019-02-07T05:51:46.104Z,-1.80
2019-02-07T05:54:16.194Z,-1.80
2019-02-07T05:56:46.244Z,-1.80
2019-02-07T05:59:32.786Z,-1.70
2019-02-07T06:02:08.789Z,-1.70
2019-02-07T06:04:42.181Z,-1.70
2019-02-07T06:07:21.246Z,-1.70
2019-02-07T06:09:51.378Z,-1.70
2019-02-07T06:12:27.821Z,-1.70
2019-02-07T06:15:04.364Z,-1.60
2019-02-07T06:17:50.376Z,-1.60
2019-02-07T06:20:38.561Z,-1.60
2019-02-07T06:23:25.048Z,-1.70
2019-02-07T06:26:04.084Z,-1.60
2019-02-07T06:28:34.216Z,-1.60
2019-02-07T06:31:07.402Z,-1.60
2019-02-07T06:33:49.146Z,-1.60
2019-02-07T06:36:35.369Z,-1.60
2019-02-07T06:41:45.363Z,-1.70
2019-02-07T06:44:25.536Z,-1.60
2019-02-07T06:46:55.599Z,-1.60
2019-02-07T06:49:28.512Z,-1.60
2019-02-07T06:52:04.472Z,-1.60
2019-02-07T06:54:34.793Z,-1.50
2019-02-07T06:57:16.419Z,-1.50
2019-02-07T06:59:45.656Z,-1.50
2019-02-07T07:02:33.957Z,-1.50
2019-02-07T07:05:20.331Z,-1.50
2019-02-07T07:08:06.592Z,-1.40
2019-02-07T07:10:45.137Z,-1.40
2019-02-07T07:13:21.173Z,-1.40
2019-02-07T07:16:06.265Z,-1.40
2019-02-07T07:18:51.605Z,-1.30
2019-02-07T07:21:22.020Z,-1.30
2019-02-07T07:23:55.052Z,-1.20
2019-02-07T07:26:41.520Z,-1.20
2019-02-07T07:29:11.968Z,-1.20
2019-02-07T07:31:58.272Z,-1.10
2019-02-07T07:34:34.606Z,-1.10
2019-02-07T07:37:21.418Z,-1.10
2019-02-07T07:39:57.621Z,-1.20
2019-02-07T07:42:44.104Z,-1.10
2019-02-07T07:45:35.832Z,-1.00
2019-02-07T07:48:08.688Z,-1.00
2019-02-07T07:50:50.877Z,-1.00
2019-02-07T07:53:37.148Z,-0.90
2019-02-07T07:56:19.094Z,-0.90
2019-02-07T07:58:55.145Z,-0.80
2019-02-07T08:01:25.222Z,-0.80
2019-02-07T08:04:17.609Z,-0.80
2019-02-07T08:07:02.394Z,-0.80
2019-02-07T08:09:48.388Z,-0.80
2019-02-07T08:12:21.169Z,-0.80
2019-02-07T08:15:09.693Z,-0.70
2019-02-07T08:17:47.438Z,-0.70
2019-02-07T08:20:29.129Z,-0.60
2019-02-07T08:22:59.209Z,-0.60
2019-02-07T08:25:38.236Z,-0.50
2019-02-07T08:28:11.088Z,-0.50
2019-02-07T08:30:50.141Z,-0.50
2019-02-07T08:33:23.214Z,-0.40
2019-02-07T08:35:53.273Z,-0.40
2019-02-07T08:38:38.738Z,-0.30
2019-02-07T08:41:27.232Z,-0.30
2019-02-07T08:43:57.306Z,-0.30
2019-02-07T08:46:43.969Z,-0.20
2019-02-07T08:49:14.041Z,-0.10
2019-02-07T08:51:53.888Z,-0.10
2019-02-07T08:54:40.405Z,0.00
2019-02-07T08:57:28.573Z,0.00
2019-02-07T09:00:07.704Z,0.10
2019-02-07T09:02:37.787Z,0.20
2019-02-07T09:05:15.140Z,0.20
2019-02-07T09:07:45.217Z,0.30
2019-02-07T09:10:24.140Z,0.30
2019-02-07T09:12:57.389Z,0.40
2019-02-07T09:15:27.452Z,0.40
2019-02-07T09:18:10.365Z,0.50
2019-02-07T09:20:43.785Z,0.50
2019-02-07T09:23:13.852Z,0.60
2019-02-07T09:25:52.941Z,0.70
2019-02-07T09:28:29.081Z,0.70
2019-02-07T09:31:14.144Z,0.80
2019-02-07T09:33:47.048Z,0.90
2019-02-07T09:36:17.112Z,1.00
2019-02-07T09:39:04.133Z,1.10
2019-02-07T09:41:40.028Z,1.20
2019-02-07T09:44:10.124Z,1.20
2019-02-07T09:46:46.004Z,1.20
2019-02-07T09:49:22.172Z,1.30
2019-02-07T09:51:52.232Z,1.40
2019-02-07T09:54:38.834Z,1.40
2019-02-07T09:57:09.260Z,1.50
2019-02-07T09:59:42.351Z,1.50
2019-02-07T10:02:18.133Z,1.50
2019-02-07T10:05:06.485Z,1.50
2019-02-07T10:07:39.637Z,1.50
2019-02-07T10:10:38.360Z,1.40
2019-02-07T10:13:11.026Z,1.40
2019-02-07T10:15:41.158Z,1.40
2019-02-07T10:23:45.509Z,1.30
2019-02-07T10:26:24.656Z,1.30
2019-02-07T10:29:01.020Z,1.30
2019-02-07T10:31:40.350Z,1.30
2019-02-07T10:34:18.772Z,1.40
2019-02-07T10:36:48.261Z,1.40
2019-02-07T10:39:18.332Z,1.40
2019-02-07T10:41:48.417Z,1.40
2019-02-07T10:46:57.698Z,1.50
2019-02-07T10:49:33.997Z,1.50
2019-02-07T10:52:10.232Z,1.60
2019-02-07T10:54:43.021Z,1.60
2019-02-07T10:59:48.635Z,1.90
2019-02-07T11:02:24.948Z,2.10
2019-02-07T11:05:07.628Z,2.30
2019-02-07T11:07:37.752Z,2.40
2019-02-07T11:10:27.072Z,2.40
2019-02-07T11:13:02.982Z,2.50
2019-02-07T11:15:51.248Z,2.50
2019-02-07T11:21:09.745Z,2.60
2019-02-07T11:23:57.464Z,2.60
2019-02-07T11:26:43.935Z,2.60
2019-02-07T11:29:14.014Z,2.70
2019-02-07T11:32:02.373Z,2.70
2019-02-07T11:37:25.816Z,2.80
2019-02-07T11:39:55.883Z,2.90
2019-02-07T11:42:31.941Z,3.00
2019-02-07T11:45:05.328Z,3.00
2019-02-07T11:47:50.360Z,3.10
2019-02-07T11:50:36.684Z,3.10
2019-02-07T11:53:25.632Z,3.20
2019-02-07T11:56:04.457Z,3.40
2019-02-07T11:58:34.513Z,3.50
2019-02-07T12:01:11.316Z,3.60
2019-02-07T12:03:41.681Z,3.70
2019-02-07T12:06:12.489Z,3.70
2019-02-07T12:08:42.833Z,3.80
2019-02-07T12:11:13.258Z,3.80
2019-02-07T12:13:49.522Z,3.90
2019-02-07T12:16:25.560Z,4.00
2019-02-07T12:19:04.088Z,4.10
2019-02-07T12:21:43.342Z,4.10
2019-02-07T12:24:18.345Z,4.20
2019-02-07T12:26:48.405Z,4.30
2019-02-07T12:29:34.993Z,4.30
2019-02-07T12:32:22.109Z,4.50
2019-02-07T12:34:52.160Z,4.50
2019-02-07T12:37:31.030Z,4.60
2019-02-07T12:40:16.684Z,4.60
2019-02-07T12:42:49.632Z,4.70
2019-02-07T12:45:28.901Z,4.70
2019-02-07T12:47:58.963Z,4.80
2019-02-07T12:50:45.437Z,4.80
2019-02-07T12:53:21.221Z,4.80
2019-02-07T12:56:07.497Z,4.90
2019-02-07T12:58:37.542Z,4.90
2019-02-07T13:01:13.791Z,4.90
2019-02-07T13:04:00.056Z,4.90
2019-02-07T13:06:30.841Z,4.90
2019-02-07T13:09:00.893Z,4.90
2019-02-07T13:11:42.964Z,4.90
2019-02-07T13:14:13.084Z,4.90
2019-02-07T13:16:46.589Z,4.90
2019-02-07T13:19:19.735Z,4.90
2019-02-07T13:21:59.407Z,4.90
2019-02-07T13:24:45.880Z,5.00
2019-02-07T13:27:16.046Z,5.00
2019-02-07T13:29:46.148Z,5.00
2019-02-07T13:32:22.365Z,5.10
2019-02-07T13:34:58.571Z,5.10
2019-02-07T13:37:34.505Z,5.10
2019-02-07T13:40:03.541Z,5.10
2019-02-07T13:42:49.235Z,5.10
2019-02-07T13:45:35.129Z,5.10
2019-02-07T13:48:05.425Z,5.10
2019-02-07T13:50:38.185Z,5.20
2019-02-07T13:53:10.996Z,5.20
2019-02-07T13:55:47.448Z,5.20
2019-02-07T13:58:20.440Z,5.20
2019-02-07T14:01:06.972Z,5.20
2019-02-07T14:03:45.751Z,5.30
2019-02-07T14:06:15.921Z,5.40
2019-02-07T14:08:54.980Z,5.40
2019-02-07T14:11:25.020Z,5.60
2019-02-07T14:14:07.080Z,5.80
2019-02-07T14:16:53.468Z,5.80
2019-02-07T14:19:32.180Z,5.80
2019-02-07T14:22:02.589Z,5.80
2019-02-07T14:24:32.637Z,5.90
2019-02-07T14:27:05.416Z,5.90
2019-02-07T14:29:52.289Z,5.80
2019-02-07T14:32:37.168Z,5.80
2019-02-07T14:35:26.323Z,5.70
2019-02-07T14:38:05.397Z,5.60
2019-02-07T14:40:38.405Z,5.50
2019-02-07T14:43:20.008Z,5.50
2019-02-07T14:45:53.018Z,5.50
2019-02-07T14:48:23.342Z,5.40
2019-02-07T14:50:52.090Z,5.40
2019-02-07T14:53:20.921Z,5.40
2019-02-07T14:55:49.335Z,5.50
2019-02-07T14:58:17.748Z,5.60
2019-02-07T15:00:46.155Z,5.70
2019-02-07T15:03:14.568Z,5.70
2019-02-07T15:05:43.362Z,5.70
2019-02-07T15:08:12.112Z,5.70
2019-02-07T15:10:40.591Z,5.70
2019-02-07T15:13:08.997Z,5.70
2019-02-07T15:15:37.397Z,5.60
2019-02-07T15:18:06.898Z,5.60
2019-02-07T15:20:35.298Z,5.60
2019-02-07T15:23:03.985Z,5.50
2019-02-07T15:25:32.464Z,5.50
2019-02-07T15:28:00.876Z,5.50
2019-02-07T15:30:29.434Z,5.50
2019-02-07T15:32:57.849Z,5.40
2019-02-07T15:35:32.156Z,5.40
2019-02-07T15:38:00.577Z,5.30
2019-02-07T15:40:28.991Z,5.30
2019-02-07T15:42:57.816Z,5.20
2019-02-07T15:45:26.293Z,5.20
2019-02-07T15:47:54.705Z,5.10
2019-02-07T15:50:24.959Z,5.00
2019-02-07T15:52:55.815Z,5.00
2019-02-07T15:55:24.397Z,4.90
2019-02-07T15:57:52.972Z,4.90
2019-02-07T16:00:44.066Z,4.80
2019-02-07T16:03:20.518Z,4.70
2019-02-07T16:05:48.920Z,4.70
2019-02-07T16:08:17.341Z,4.70
2019-02-07T16:10:45.753Z,4.70
2019-02-07T16:13:16.860Z,4.60
2019-02-07T16:15:45.281Z,4.60
2019-02-07T16:18:13.697Z,4.60
2019-02-07T16:20:48.653Z,4.60
2019-02-07T16:23:12.441Z,4.60
2019-02-07T16:25:40.922Z,4.50
2019-02-07T16:28:09.509Z,4.50
2019-02-07T16:30:38.368Z,4.40
2019-02-07T16:33:07.800Z,4.40
2019-02-07T16:35:38.261Z,4.40
2019-02-07T16:38:06.820Z,4.40
2019-02-07T16:40:35.308Z,4.30
2019-02-07T16:43:04.057Z,4.30
2019-02-07T16:45:32.552Z,4.20
2019-02-07T16:48:01.409Z,4.20
2019-02-07T16:50:31.572Z,4.10
2019-02-07T16:53:01.580Z,4.10
2019-02-07T16:55:30.216Z,4.00
2019-02-07T16:57:58.620Z,4.00
2019-02-07T17:00:30.124Z,3.90
2019-02-07T17:02:59.152Z,3.90
2019-02-07T17:05:27.650Z,3.90
2019-02-07T17:07:56.055Z,3.90
2019-02-07T17:10:33.702Z,3.80
2019-02-07T17:13:02.105Z,3.80
2019-02-07T17:15:30.698Z,3.70
2019-02-07T17:17:59.102Z,3.70
2019-02-07T17:20:31.584Z,3.70
2019-02-07T17:23:00.062Z,3.60
2019-02-07T17:25:30.619Z,3.60
2019-02-07T17:27:59.178Z,3.60
2019-02-07T17:30:27.852Z,3.60
2019-02-07T17:32:56.341Z,3.50
2019-02-07T17:35:24.832Z,3.50
2019-02-07T17:37:53.258Z,3.50
2019-02-07T17:40:22.821Z,3.50
2019-02-07T17:42:51.237Z,3.50
2019-02-07T17:45:25.651Z,3.40
2019-02-07T17:47:54.309Z,3.40
2019-02-07T17:50:36.223Z,3.40
2019-02-07T17:53:07.537Z,3.40
2019-02-07T17:55:35.965Z,3.40
2019-02-07T17:58:05.823Z,3.40
2019-02-07T18:00:47.929Z,3.40
2019-02-07T18:03:16.350Z,3.40
2019-02-07T18:05:44.781Z,3.30
2019-02-07T18:08:13.380Z,3.30
2019-02-07T18:10:41.867Z,3.30
2019-02-07T18:13:10.689Z,3.20
2019-02-07T18:15:39.121Z,3.20
2019-02-07T18:18:07.688Z,3.10
2019-02-07T18:20:36.362Z,3.10
2019-02-07T18:23:04.962Z,3.00
2019-02-07T18:25:33.448Z,2.90
2019-02-07T18:28:02.341Z,2.90
2019-02-07T18:30:30.765Z,2.80
2019-02-07T18:32:59.184Z,2.80
2019-02-07T18:35:28.520Z,2.70
2019-02-07T18:37:56.927Z,2.70
2019-02-07T18:40:30.772Z,2.60
2019-02-07T18:42:59.861Z,2.50
2019-02-07T18:45:28.636Z,2.50
2019-02-07T18:47:57.053Z,2.40
2019-02-07T18:50:34.220Z,2.40
2019-02-07T18:53:02.808Z,2.40
2019-02-07T18:55:31.228Z,2.40
2019-02-07T18:58:00.135Z,2.40
2019-02-07T19:00:31.177Z,2.40
2019-02-07T19:02:59.572Z,2.50
2019-02-07T19:05:28.074Z,2.50
2019-02-07T19:07:56.755Z,2.50
2019-02-07T19:10:29.627Z,2.50
2019-02-07T19:12:58.421Z,2.60
2019-02-07T19:15:42.290Z,2.60
2019-02-07T19:18:10.761Z,2.70
2019-02-07T19:20:39.541Z,2.30
2019-02-07T19:23:07.957Z,2.70
2019-02-07T19:25:36.452Z,2.70
2019-02-07T19:28:06.007Z,2.80
2019-02-07T19:30:34.723Z,1.90
2019-02-07T19:33:03.132Z,2.70
2019-02-07T19:35:31.616Z,2.70
2019-02-07T19:38:00.024Z,2.70
2019-02-07T19:40:28.755Z,2.70
2019-02-07T19:42:57.616Z,2.60
2019-02-07T19:45:27.372Z,2.60
2019-02-07T19:47:55.788Z,2.50
2019-02-07T19:50:27.905Z,2.50
2019-02-07T19:52:56.592Z,2.50
2019-02-07T19:55:28.086Z,2.40
2019-02-07T19:57:56.932Z,2.40
2019-02-07T20:00:30.604Z,2.30
2019-02-07T20:02:59.004Z,2.30
2019-02-07T20:05:27.493Z,2.20
2019-02-07T20:07:56.238Z,2.20
2019-02-07T20:10:29.172Z,2.20
2019-02-07T20:12:58.573Z,2.10
2019-02-07T20:15:39.038Z,2.10
2019-02-07T20:18:08.789Z,2.00
2019-02-07T20:20:38.344Z,2.00
2019-02-07T20:23:07.099Z,2.00
2019-02-07T20:25:35.950Z,1.90
2019-02-07T20:28:04.612Z,1.90
2019-02-07T20:30:35.270Z,1.90
2019-02-07T20:33:04.661Z,1.90
2019-02-07T20:35:33.147Z,1.90
2019-02-07T20:38:01.639Z,1.90
2019-02-07T20:40:31.845Z,1.90
2019-02-07T20:43:00.820Z,1.90
2019-02-07T20:45:29.306Z,1.90
2019-02-07T20:47:57.720Z,1.90
2019-02-07T20:50:27.372Z,1.90
2019-02-07T20:52:55.944Z,1.90
2019-02-07T20:55:24.788Z,1.90
2019-02-07T20:57:54.342Z,1.90
2019-02-07T21:00:38.049Z,1.80
2019-02-07T21:03:07.235Z,1.80
2019-02-07T21:05:36.286Z,1.80
2019-02-07T21:08:05.257Z,1.80
2019-02-07T21:10:36.176Z,1.80
2019-02-07T21:13:05.220Z,1.80
2019-02-07T21:15:33.772Z,1.70
2019-02-07T21:18:02.260Z,1.70
2019-02-07T21:20:31.609Z,1.70
2019-02-07T21:23:01.271Z,1.60
2019-02-07T21:25:35.432Z,1.60
2019-02-07T21:28:04.852Z,1.50
2019-02-07T21:30:33.335Z,1.50
2019-02-07T21:33:01.756Z,1.30
2019-02-07T21:35:30.236Z,1.30
2019-02-07T21:37:58.661Z,1.20
2019-02-07T21:40:31.078Z,1.20
2019-02-07T21:43:00.336Z,1.10
2019-02-07T21:45:29.566Z,1.10
2019-02-07T21:48:18.845Z,1.00
2019-02-07T21:58:12.294Z,1.00
2019-02-07T22:00:43.239Z,0.90
2019-02-07T22:03:12.909Z,1.00
2019-02-07T22:05:42.198Z,0.90
2019-02-07T22:08:10.756Z,0.90
2019-02-07T22:25:28.452Z,1.20
2019-02-07T22:27:56.984Z,1.20
2019-02-07T22:30:47.193Z,1.20
2019-02-07T22:33:15.617Z,1.20
2019-02-07T22:35:44.033Z,1.20
2019-02-07T22:38:12.460Z,1.20
2019-02-07T22:41:00.204Z,1.20
2019-02-07T22:43:28.628Z,1.20
2019-02-07T22:45:57.333Z,1.30
2019-02-07T22:48:25.757Z,1.30
2019-02-07T22:50:55.604Z,1.30
2019-02-07T22:53:24.168Z,1.30
2019-02-07T22:55:52.586Z,1.30
2019-02-07T22:58:21.004Z,1.30
2019-02-07T23:01:01.169Z,1.30
2019-02-07T23:03:29.584Z,1.20
2019-02-07T23:05:57.993Z,1.20
2019-02-07T23:08:26.796Z,1.10
2019-02-07T23:10:55.277Z,1.10
2019-02-07T23:13:23.773Z,1.00
2019-02-07T23:15:52.172Z,0.90
2019-02-07T23:18:20.601Z,0.90
2019-02-07T23:20:49.075Z,0.90
2019-02-07T23:23:17.759Z,0.90
2019-02-07T23:25:46.172Z,0.90
2019-02-07T23:28:14.656Z,1.00
2019-02-07T23:30:43.405Z,1.00
2019-02-07T23:33:11.901Z,1.00
2019-02-07T23:35:40.387Z,0.90
2019-02-07T23:38:08.812Z,0.80
2019-02-07T23:40:37.828Z,0.80
2019-02-07T23:43:07.580Z,0.90
2019-02-07T23:45:36.311Z,0.90
2019-02-07T23:48:05.462Z,0.90
2019-02-07T23:50:34.229Z,0.90
2019-02-07T23:53:02.639Z,0.90
2019-02-07T23:55:31.116Z,0.90
2019-02-07T23:57:59.912Z,0.90
